Airfield :
LOGIN :

Register | Disclaimer

   EN    FR    IT 

 










Legend :    VFR   Marginal VFR   IFR   Intensive IFR   Very Intensive IFR
Visi :
Ceiling :
>= 8 km
>= 3000ft
5 to 8 km
1000 to 3000 ft
1500m to 5 km
500 to 1000 ft
800 to 1500m
200 to 500 ft
< 800m
< 200 ft
Symbols :   Thunderstorms  Fog  Heavy snow  Heavy precipitations  Wind > 20 kt
SIGMETs :     Misc.  Thunderstorms  Icing  Turbulence  Mountain Waves  Volcanic Ashes







- Airport Elevation : 17 ft
- IATA code : MPL
- Download approach charts


LFMT - Montpellier Méditerranée

CURRENT METAR :
  • 260900Z AUTO 33008KT 300V020 CAVOK 21/05 Q1017 NOSIG

EXPIRED METARs :
  • 260830Z AUTO 35008KT 300V020 CAVOK 20/05 Q1018 NOSIG
  • 260800Z AUTO 34011KT 300V030 CAVOK 20/06 Q1018 NOSIG
  • 260730Z AUTO 34012KT 300V010 CAVOK 19/06 Q1018 NOSIG
  • 260700Z AUTO 32010KT CAVOK 18/07 Q1018 NOSIG
  • 260630Z AUTO 31008KT CAVOK 17/08 Q1018 NOSIG

TAF TAF LFMT
Valid from the 26 at 09:00 until the 27 at 09:00 UTC


260800Z 2609/2709 33010KT CAVOK
BECMG 2623/2702 VRB05KT
ATIS : +33 4 67 13 11 70
No reported NOTAMs for that airfield.



MET'MAP, your aeronautical weather chart ! - Copyright ORBIFLY December 2007 - Disclaimer

ORBIFLY MET'MAP TEAM :

Programming & Development : Alexandra Zaïnal
Concept & Development : Baudouin d'Aumeries
Co-Development & Prog : Marc-Olivier Méhu
Technical & hardware support : Manuel Goepfert

Contact : metmap@orbifly.com




SOURCES & CREDITS :

   NOAA